sensor_id;sensor_type;location;lat;lon;timestamp;temperature;humidity
33943;DHT22;66763;47.856;17.462;2023-02-01T00:01:10;12.40;47.00
33943;DHT22;66763;47.856;17.462;2023-02-01T00:03:35;12.40;47.00
33943;DHT22;66763;47.856;17.462;2023-02-01T00:06:01;12.30;47.10
33943;DHT22;66763;47.856;17.462;2023-02-01T00:08:26;12.30;47.20
33943;DHT22;66763;47.856;17.462;2023-02-01T00:11:02;12.20;47.30
33943;DHT22;66763;47.856;17.462;2023-02-01T00:13:29;12.20;47.40
33943;DHT22;66763;47.856;17.462;2023-02-01T00:16:01;12.10;47.40
33943;DHT22;66763;47.856;17.462;2023-02-01T00:18:27;12.10;47.50
33943;DHT22;66763;47.856;17.462;2023-02-01T00:20:52;12.10;47.60
33943;DHT22;66763;47.856;17.462;2023-02-01T00:23:18;12.00;47.60
33943;DHT22;66763;47.856;17.462;2023-02-01T00:25:44;12.00;47.60
33943;DHT22;66763;47.856;17.462;2023-02-01T00:28:10;12.00;47.70
33943;DHT22;66763;47.856;17.462;2023-02-01T00:30:38;12.00;47.80
33943;DHT22;66763;47.856;17.462;2023-02-01T00:33:04;11.90;47.90
33943;DHT22;66763;47.856;17.462;2023-02-01T00:35:29;11.90;47.80
33943;DHT22;66763;47.856;17.462;2023-02-01T00:37:55;11.90;47.90
33943;DHT22;66763;47.856;17.462;2023-02-01T00:40:20;11.90;48.00
33943;DHT22;66763;47.856;17.462;2023-02-01T00:42:46;11.90;48.00
33943;DHT22;66763;47.856;17.462;2023-02-01T00:45:11;11.90;47.90
33943;DHT22;66763;47.856;17.462;2023-02-01T00:47:37;12.00;48.00
33943;DHT22;66763;47.856;17.462;2023-02-01T00:50:02;11.90;47.90
33943;DHT22;66763;47.856;17.462;2023-02-01T00:52:28;11.90;47.90
33943;DHT22;66763;47.856;17.462;2023-02-01T00:54:53;11.90;47.90
33943;DHT22;66763;47.856;17.462;2023-02-01T00:57:19;11.90;48.00
33943;DHT22;66763;47.856;17.462;2023-02-01T00:59:44;11.90;47.90
33943;DHT22;66763;47.856;17.462;2023-02-01T01:02:10;11.90;48.00
33943;DHT22;66763;47.856;17.462;2023-02-01T01:04:37;11.90;48.00
33943;DHT22;66763;47.856;17.462;2023-02-01T01:07:03;11.80;47.90
33943;DHT22;66763;47.856;17.462;2023-02-01T01:09:28;11.80;48.00
33943;DHT22;66763;47.856;17.462;2023-02-01T01:11:54;11.80;48.00
33943;DHT22;66763;47.856;17.462;2023-02-01T01:14:19;11.80;48.10
33943;DHT22;66763;47.856;17.462;2023-02-01T01:16:45;11.80;48.10
33943;DHT22;66763;47.856;17.462;2023-02-01T01:19:10;11.80;48.00
33943;DHT22;66763;47.856;17.462;2023-02-01T01:21:36;11.80;48.00
33943;DHT22;66763;47.856;17.462;2023-02-01T01:24:02;11.80;48.00
33943;DHT22;66763;47.856;17.462;2023-02-01T01:26:28;11.80;48.00
33943;DHT22;66763;47.856;17.462;2023-02-01T01:28:54;11.80;48.00
33943;DHT22;66763;47.856;17.462;2023-02-01T01:31:20;11.80;48.00
33943;DHT22;66763;47.856;17.462;2023-02-01T01:33:49;11.80;48.00
33943;DHT22;66763;47.856;17.462;2023-02-01T01:36:15;11.80;48.00
33943;DHT22;66763;47.856;17.462;2023-02-01T01:38:41;11.80;48.10
33943;DHT22;66763;47.856;17.462;2023-02-01T01:41:07;11.80;48.70
33943;DHT22;66763;47.856;17.462;2023-02-01T01:46:21;11.70;48.00
33943;DHT22;66763;47.856;17.462;2023-02-01T01:48:48;11.70;48.00
33943;DHT22;66763;47.856;17.462;2023-02-01T01:51:15;11.70;48.10
33943;DHT22;66763;47.856;17.462;2023-02-01T01:53:48;11.70;48.10
33943;DHT22;66763;47.856;17.462;2023-02-01T01:56:15;11.70;48.10
33943;DHT22;66763;47.856;17.462;2023-02-01T01:58:41;11.60;48.00
33943;DHT22;66763;47.856;17.462;2023-02-01T02:01:06;11.70;48.10
33943;DHT22;66763;47.856;17.462;2023-02-01T02:03:33;11.60;48.00
33943;DHT22;66763;47.856;17.462;2023-02-01T02:06:00;11.70;48.10
33943;DHT22;66763;47.856;17.462;2023-02-01T02:08:27;11.60;48.00
33943;DHT22;66763;47.856;17.462;2023-02-01T02:10:52;11.70;48.10
33943;DHT22;66763;47.856;17.462;2023-02-01T02:15:59;11.60;48.10
33943;DHT22;66763;47.856;17.462;2023-02-01T02:18:32;11.60;48.10
33943;DHT22;66763;47.856;17.462;2023-02-01T02:21:09;11.60;48.10
33943;DHT22;66763;47.856;17.462;2023-02-01T02:36:29;11.60;48.10
33943;DHT22;66763;47.856;17.462;2023-02-01T02:41:37;11.50;48.10
33943;DHT22;66763;47.856;17.462;2023-02-01T02:44:36;11.50;48.20
33943;DHT22;66763;47.856;17.462;2023-02-01T02:47:27;11.40;48.20
33943;DHT22;66763;47.856;17.462;2023-02-01T02:49:59;11.50;48.20
33943;DHT22;66763;47.856;17.462;2023-02-01T02:52:46;11.50;48.30
33943;DHT22;66763;47.856;17.462;2023-02-01T02:55:33;11.40;48.30
33943;DHT22;66763;47.856;17.462;2023-02-01T02:58:00;11.50;48.30
33943;DHT22;66763;47.856;17.462;2023-02-01T03:00:46;11.50;48.90
33943;DHT22;66763;47.856;17.462;2023-02-01T03:03:31;11.40;48.20
33943;DHT22;66763;47.856;17.462;2023-02-01T03:06:16;11.40;48.30
33943;DHT22;66763;47.856;17.462;2023-02-01T03:08:43;11.40;48.30
33943;DHT22;66763;47.856;17.462;2023-02-01T03:11:11;11.40;48.30
33943;DHT22;66763;47.856;17.462;2023-02-01T03:21:21;11.40;48.20
33943;DHT22;66763;47.856;17.462;2023-02-01T03:23:47;11.40;48.20
33943;DHT22;66763;47.856;17.462;2023-02-01T03:26:14;11.40;48.30
33943;DHT22;66763;47.856;17.462;2023-02-01T03:28:45;11.40;48.20
33943;DHT22;66763;47.856;17.462;2023-02-01T03:31:12;11.40;48.30
33943;DHT22;66763;47.856;17.462;2023-02-01T03:33:39;11.40;48.20
33943;DHT22;66763;47.856;17.462;2023-02-01T03:36:15;11.30;48.20
33943;DHT22;66763;47.856;17.462;2023-02-01T03:38:44;11.30;48.20
33943;DHT22;66763;47.856;17.462;2023-02-01T03:41:15;11.30;48.20
33943;DHT22;66763;47.856;17.462;2023-02-01T03:43:47;11.30;48.20
33943;DHT22;66763;47.856;17.462;2023-02-01T03:46:16;11.30;48.20
33943;DHT22;66763;47.856;17.462;2023-02-01T03:48:43;11.30;48.20
33943;DHT22;66763;47.856;17.462;2023-02-01T03:51:09;11.30;48.20
33943;DHT22;66763;47.856;17.462;2023-02-01T03:53:36;11.30;48.20
33943;DHT22;66763;47.856;17.462;2023-02-01T03:56:02;11.30;48.20
33943;DHT22;66763;47.856;17.462;2023-02-01T03:58:27;11.30;48.20
33943;DHT22;66763;47.856;17.462;2023-02-01T04:00:54;11.30;48.20
33943;DHT22;66763;47.856;17.462;2023-02-01T04:03:20;11.30;48.30
33943;DHT22;66763;47.856;17.462;2023-02-01T04:05:47;11.30;48.20
33943;DHT22;66763;47.856;17.462;2023-02-01T04:08:13;11.30;48.30
33943;DHT22;66763;47.856;17.462;2023-02-01T04:10:38;11.30;48.30
33943;DHT22;66763;47.856;17.462;2023-02-01T04:13:04;11.30;48.30
33943;DHT22;66763;47.856;17.462;2023-02-01T04:15:29;11.30;48.30
33943;DHT22;66763;47.856;17.462;2023-02-01T04:17:55;11.20;48.20
33943;DHT22;66763;47.856;17.462;2023-02-01T04:20:20;11.30;48.30
33943;DHT22;66763;47.856;17.462;2023-02-01T04:22:46;11.20;48.30
33943;DHT22;66763;47.856;17.462;2023-02-01T04:25:11;11.30;48.30
33943;DHT22;66763;47.856;17.462;2023-02-01T04:27:37;11.20;48.30
33943;DHT22;66763;47.856;17.462;2023-02-01T04:30:03;11.20;48.30
33943;DHT22;66763;47.856;17.462;2023-02-01T04:32:29;11.20;48.90
33943;DHT22;66763;47.856;17.462;2023-02-01T04:34:54;11.20;48.30
33943;DHT22;66763;47.856;17.462;2023-02-01T04:37:20;11.20;48.30
33943;DHT22;66763;47.856;17.462;2023-02-01T04:39:45;11.20;48.90
33943;DHT22;66763;47.856;17.462;2023-02-01T04:42:11;11.20;48.30
33943;DHT22;66763;47.856;17.462;2023-02-01T04:44:36;11.20;48.30
33943;DHT22;66763;47.856;17.462;2023-02-01T04:47:07;11.20;48.30
33943;DHT22;66763;47.856;17.462;2023-02-01T04:49:32;11.20;48.30
33943;DHT22;66763;47.856;17.462;2023-02-01T04:51:58;11.20;48.30
33943;DHT22;66763;47.856;17.462;2023-02-01T04:54:24;11.20;48.30
33943;DHT22;66763;47.856;17.462;2023-02-01T04:56:50;11.20;48.40
33943;DHT22;66763;47.856;17.462;2023-02-01T04:59:15;11.20;48.40
33943;DHT22;66763;47.856;17.462;2023-02-01T05:01:41;11.20;48.30
33943;DHT22;66763;47.856;17.462;2023-02-01T05:04:06;11.20;48.30
33943;DHT22;66763;47.856;17.462;2023-02-01T05:06:32;11.20;48.30
33943;DHT22;66763;47.856;17.462;2023-02-01T05:08:57;11.20;48.30
33943;DHT22;66763;47.856;17.462;2023-02-01T05:11:23;11.20;48.40
33943;DHT22;66763;47.856;17.462;2023-02-01T05:14:07;11.20;48.40
33943;DHT22;66763;47.856;17.462;2023-02-01T05:16:32;11.20;48.30
33943;DHT22;66763;47.856;17.462;2023-02-01T05:18:58;11.20;48.40
33943;DHT22;66763;47.856;17.462;2023-02-01T05:21:24;11.20;48.30
33943;DHT22;66763;47.856;17.462;2023-02-01T05:23:50;11.20;48.40
33943;DHT22;66763;47.856;17.462;2023-02-01T05:26:34;11.20;48.40
33943;DHT22;66763;47.856;17.462;2023-02-01T05:28:59;11.20;48.50
33943;DHT22;66763;47.856;17.462;2023-02-01T05:31:24;11.20;48.40
33943;DHT22;66763;47.856;17.462;2023-02-01T05:33:50;11.20;48.40
33943;DHT22;66763;47.856;17.462;2023-02-01T05:36:16;11.20;48.40
33943;DHT22;66763;47.856;17.462;2023-02-01T05:38:41;11.20;48.40
33943;DHT22;66763;47.856;17.462;2023-02-01T05:41:07;11.10;48.30
33943;DHT22;66763;47.856;17.462;2023-02-01T05:43:32;11.20;49.00
33943;DHT22;66763;47.856;17.462;2023-02-01T05:45:58;11.20;48.40
33943;DHT22;66763;47.856;17.462;2023-02-01T05:48:24;11.20;48.40
33943;DHT22;66763;47.856;17.462;2023-02-01T05:50:49;11.10;48.30
33943;DHT22;66763;47.856;17.462;2023-02-01T05:53:15;11.20;48.40
33943;DHT22;66763;47.856;17.462;2023-02-01T05:58:25;11.10;48.30
33943;DHT22;66763;47.856;17.462;2023-02-01T06:00:50;11.10;48.40
33943;DHT22;66763;47.856;17.462;2023-02-01T06:03:16;11.10;48.40
33943;DHT22;66763;47.856;17.462;2023-02-01T06:05:43;11.10;48.40
33943;DHT22;66763;47.856;17.462;2023-02-01T06:08:08;11.10;48.40
33943;DHT22;66763;47.856;17.462;2023-02-01T06:10:34;11.20;48.60
33943;DHT22;66763;47.856;17.462;2023-02-01T06:12:59;11.30;48.50
33943;DHT22;66763;47.856;17.462;2023-02-01T06:15:25;11.50;48.40
33943;DHT22;66763;47.856;17.462;2023-02-01T06:17:50;11.70;48.10
33943;DHT22;66763;47.856;17.462;2023-02-01T06:20:16;12.00;47.80
33943;DHT22;66763;47.856;17.462;2023-02-01T06:22:42;12.10;47.40
33943;DHT22;66763;47.856;17.462;2023-02-01T06:25:08;12.30;47.10
33943;DHT22;66763;47.856;17.462;2023-02-01T06:27:34;12.50;46.80
33943;DHT22;66763;47.856;17.462;2023-02-01T06:30:01;12.70;46.60
33943;DHT22;66763;47.856;17.462;2023-02-01T06:32:26;12.80;46.40
33943;DHT22;66763;47.856;17.462;2023-02-01T06:34:52;12.90;46.20
33943;DHT22;66763;47.856;17.462;2023-02-01T06:37:18;13.00;46.00
33943;DHT22;66763;47.856;17.462;2023-02-01T06:39:43;13.10;45.80
33943;DHT22;66763;47.856;17.462;2023-02-01T06:42:09;13.20;45.70
33943;DHT22;66763;47.856;17.462;2023-02-01T06:44:34;13.30;45.60
33943;DHT22;66763;47.856;17.462;2023-02-01T06:47:00;13.30;45.50
33943;DHT22;66763;47.856;17.462;2023-02-01T06:49:25;13.40;45.50
33943;DHT22;66763;47.856;17.462;2023-02-01T06:51:51;13.30;45.40
33943;DHT22;66763;47.856;17.462;2023-02-01T06:54:16;13.40;45.40
33943;DHT22;66763;47.856;17.462;2023-02-01T06:56:42;13.40;45.50
33943;DHT22;66763;47.856;17.462;2023-02-01T06:59:07;13.30;45.50
33943;DHT22;66763;47.856;17.462;2023-02-01T07:01:33;13.30;45.60
33943;DHT22;66763;47.856;17.462;2023-02-01T07:03:59;13.20;45.70
33943;DHT22;66763;47.856;17.462;2023-02-01T07:06:24;13.20;45.80
33943;DHT22;66763;47.856;17.462;2023-02-01T07:08:50;13.10;45.80
33943;DHT22;66763;47.856;17.462;2023-02-01T07:11:16;13.10;45.90
33943;DHT22;66763;47.856;17.462;2023-02-01T07:13:42;13.00;46.00
33943;DHT22;66763;47.856;17.462;2023-02-01T07:16:12;13.00;46.10
33943;DHT22;66763;47.856;17.462;2023-02-01T07:18:38;12.90;46.20
33943;DHT22;66763;47.856;17.462;2023-02-01T07:21:03;12.80;46.30
33943;DHT22;66763;47.856;17.462;2023-02-01T07:23:29;12.80;46.50
33943;DHT22;66763;47.856;17.462;2023-02-01T07:25:55;12.80;47.20
33943;DHT22;66763;47.856;17.462;2023-02-01T07:28:21;12.70;46.60
33943;DHT22;66763;47.856;17.462;2023-02-01T07:30:46;12.70;46.70
33943;DHT22;66763;47.856;17.462;2023-02-01T07:33:22;12.60;46.70
33943;DHT22;66763;47.856;17.462;2023-02-01T07:35:48;12.60;46.90
33943;DHT22;66763;47.856;17.462;2023-02-01T07:38:14;12.50;46.90
33943;DHT22;66763;47.856;17.462;2023-02-01T07:40:40;12.50;47.00
33943;DHT22;66763;47.856;17.462;2023-02-01T07:43:06;12.50;47.00
33943;DHT22;66763;47.856;17.462;2023-02-01T07:45:33;12.40;47.10
33943;DHT22;66763;47.856;17.462;2023-02-01T07:47:59;12.30;47.20
33943;DHT22;66763;47.856;17.462;2023-02-01T07:50:24;12.30;47.30
33943;DHT22;66763;47.856;17.462;2023-02-01T07:52:50;12.30;47.30
33943;DHT22;66763;47.856;17.462;2023-02-01T07:55:15;12.20;47.40
33943;DHT22;66763;47.856;17.462;2023-02-01T07:57:41;12.20;47.40
33943;DHT22;66763;47.856;17.462;2023-02-01T08:00:07;12.10;47.50
33943;DHT22;66763;47.856;17.462;2023-02-01T08:02:51;12.10;47.50
33943;DHT22;66763;47.856;17.462;2023-02-01T08:05:17;12.10;47.60
33943;DHT22;66763;47.856;17.462;2023-02-01T08:07:42;12.10;47.70
33943;DHT22;66763;47.856;17.462;2023-02-01T08:10:08;12.00;47.70
33943;DHT22;66763;47.856;17.462;2023-02-01T08:12:36;12.00;47.80
33943;DHT22;66763;47.856;17.462;2023-02-01T08:15:02;12.00;47.90
33943;DHT22;66763;47.856;17.462;2023-02-01T08:17:28;12.00;48.00
33943;DHT22;66763;47.856;17.462;2023-02-01T08:19:54;11.90;47.90
33943;DHT22;66763;47.856;17.462;2023-02-01T08:22:20;11.90;48.00
33943;DHT22;66763;47.856;17.462;2023-02-01T08:24:47;11.90;48.10
33943;DHT22;66763;47.856;17.462;2023-02-01T08:27:13;11.90;48.10
33943;DHT22;66763;47.856;17.462;2023-02-01T08:29:38;11.90;48.10
33943;DHT22;66763;47.856;17.462;2023-02-01T08:32:04;11.90;48.00
33943;DHT22;66763;47.856;17.462;2023-02-01T08:34:29;11.90;48.10
33943;DHT22;66763;47.856;17.462;2023-02-01T08:36:55;11.90;48.00
33943;DHT22;66763;47.856;17.462;2023-02-01T08:39:24;11.90;48.00
33943;DHT22;66763;47.856;17.462;2023-02-01T08:41:49;11.90;48.10
33943;DHT22;66763;47.856;17.462;2023-02-01T08:44:35;11.90;48.10
33943;DHT22;66763;47.856;17.462;2023-02-01T08:47:02;11.90;48.10
33943;DHT22;66763;47.856;17.462;2023-02-01T08:49:28;11.90;48.10
33943;DHT22;66763;47.856;17.462;2023-02-01T08:51:53;11.80;48.10
33943;DHT22;66763;47.856;17.462;2023-02-01T08:54:19;11.80;48.10
33943;DHT22;66763;47.856;17.462;2023-02-01T08:56:44;11.80;48.10
33943;DHT22;66763;47.856;17.462;2023-02-01T08:59:10;11.80;48.10
33943;DHT22;66763;47.856;17.462;2023-02-01T09:01:35;11.80;48.10
33943;DHT22;66763;47.856;17.462;2023-02-01T09:04:01;11.80;48.10
33943;DHT22;66763;47.856;17.462;2023-02-01T09:06:26;11.80;48.10
33943;DHT22;66763;47.856;17.462;2023-02-01T09:08:51;11.80;48.10
33943;DHT22;66763;47.856;17.462;2023-02-01T09:11:17;11.80;48.20
33943;DHT22;66763;47.856;17.462;2023-02-01T09:13:44;11.80;48.10
33943;DHT22;66763;47.856;17.462;2023-02-01T09:16:10;11.80;48.20
33943;DHT22;66763;47.856;17.462;2023-02-01T09:18:36;11.80;48.10
33943;DHT22;66763;47.856;17.462;2023-02-01T09:21:05;11.80;48.70
33943;DHT22;66763;47.856;17.462;2023-02-01T09:23:31;11.80;48.10
33943;DHT22;66763;47.856;17.462;2023-02-01T09:26:00;11.80;48.10
33943;DHT22;66763;47.856;17.462;2023-02-01T09:28:25;11.80;48.20
33943;DHT22;66763;47.856;17.462;2023-02-01T09:30:56;11.80;48.20
33943;DHT22;66763;47.856;17.462;2023-02-01T09:33:21;11.80;48.20
33943;DHT22;66763;47.856;17.462;2023-02-01T09:35:49;11.80;48.20
33943;DHT22;66763;47.856;17.462;2023-02-01T09:38:14;11.70;48.10
33943;DHT22;66763;47.856;17.462;2023-02-01T09:40:41;11.70;48.20
33943;DHT22;66763;47.856;17.462;2023-02-01T09:48:15;11.70;48.20
33943;DHT22;66763;47.856;17.462;2023-02-01T09:50:43;11.70;48.30
33943;DHT22;66763;47.856;17.462;2023-02-01T09:53:13;11.70;48.20
33943;DHT22;66763;47.856;17.462;2023-02-01T09:55:42;11.70;48.20
33943;DHT22;66763;47.856;17.462;2023-02-01T09:58:11;11.60;48.20
33943;DHT22;66763;47.856;17.462;2023-02-01T10:00:38;11.60;48.20
33943;DHT22;66763;47.856;17.462;2023-02-01T10:03:04;11.60;48.20
33943;DHT22;66763;47.856;17.462;2023-02-01T10:08:01;11.60;48.20
33943;DHT22;66763;47.856;17.462;2023-02-01T10:10:30;11.60;48.30
33943;DHT22;66763;47.856;17.462;2023-02-01T10:18:15;11.60;48.30
33943;DHT22;66763;47.856;17.462;2023-02-01T10:25:52;11.60;48.30
33943;DHT22;66763;47.856;17.462;2023-02-01T10:28:18;11.50;48.30
33943;DHT22;66763;47.856;17.462;2023-02-01T10:30:46;11.60;48.40
33943;DHT22;66763;47.856;17.462;2023-02-01T10:33:14;11.50;48.40
33943;DHT22;66763;47.856;17.462;2023-02-01T10:35:41;11.50;48.40
33943;DHT22;66763;47.856;17.462;2023-02-01T10:41:17;11.50;48.40
33943;DHT22;66763;47.856;17.462;2023-02-01T10:43:44;11.50;48.40
33943;DHT22;66763;47.856;17.462;2023-02-01T10:46:12;11.50;48.40
33943;DHT22;66763;47.856;17.462;2023-02-01T10:48:37;11.50;48.40
33943;DHT22;66763;47.856;17.462;2023-02-01T10:51:06;11.50;48.40
33943;DHT22;66763;47.856;17.462;2023-02-01T10:56:06;11.50;48.40
33943;DHT22;66763;47.856;17.462;2023-02-01T10:58:32;11.50;48.40
33943;DHT22;66763;47.856;17.462;2023-02-01T11:00:59;11.40;48.40
33943;DHT22;66763;47.856;17.462;2023-02-01T11:05:59;11.40;48.40
33943;DHT22;66763;47.856;17.462;2023-02-01T11:08:25;11.40;48.50
33943;DHT22;66763;47.856;17.462;2023-02-01T11:10:58;11.40;48.50
33943;DHT22;66763;47.856;17.462;2023-02-01T11:13:24;11.40;48.50
33943;DHT22;66763;47.856;17.462;2023-02-01T11:15:54;11.40;48.50
33943;DHT22;66763;47.856;17.462;2023-02-01T11:18:25;11.40;48.40
33943;DHT22;66763;47.856;17.462;2023-02-01T11:20:52;11.40;48.50
33943;DHT22;66763;47.856;17.462;2023-02-01T11:23:19;11.40;48.50
33943;DHT22;66763;47.856;17.462;2023-02-01T11:25:53;11.30;49.10
33943;DHT22;66763;47.856;17.462;2023-02-01T11:28:20;11.40;48.60
33943;DHT22;66763;47.856;17.462;2023-02-01T11:30:47;11.40;48.60
33943;DHT22;66763;47.856;17.462;2023-02-01T11:33:14;11.30;48.50
33943;DHT22;66763;47.856;17.462;2023-02-01T11:35:40;11.30;48.50
33943;DHT22;66763;47.856;17.462;2023-02-01T11:38:39;11.30;48.50
33943;DHT22;66763;47.856;17.462;2023-02-01T11:41:16;11.40;48.60
33943;DHT22;66763;47.856;17.462;2023-02-01T11:43:55;11.30;48.60
33943;DHT22;66763;47.856;17.462;2023-02-01T11:46:22;11.30;48.60
33943;DHT22;66763;47.856;17.462;2023-02-01T11:48:50;11.30;48.60
33943;DHT22;66763;47.856;17.462;2023-02-01T12:06:47;11.30;48.60
33943;DHT22;66763;47.856;17.462;2023-02-01T12:14:36;11.30;48.60
33943;DHT22;66763;47.856;17.462;2023-02-01T12:35:04;11.20;48.60
33943;DHT22;66763;47.856;17.462;2023-02-01T12:37:41;11.20;48.60
33943;DHT22;66763;47.856;17.462;2023-02-01T12:40:24;11.20;48.60
33943;DHT22;66763;47.856;17.462;2023-02-01T12:45:46;11.20;48.60
33943;DHT22;66763;47.856;17.462;2023-02-01T12:50:59;11.20;48.60
33943;DHT22;66763;47.856;17.462;2023-02-01T12:53:44;11.20;48.60
33943;DHT22;66763;47.856;17.462;2023-02-01T12:56:12;11.20;48.60
33943;DHT22;66763;47.856;17.462;2023-02-01T12:58:46;11.20;48.60
33943;DHT22;66763;47.856;17.462;2023-02-01T13:01:25;11.20;48.60
33943;DHT22;66763;47.856;17.462;2023-02-01T13:06:39;11.20;48.60
33943;DHT22;66763;47.856;17.462;2023-02-01T13:09:26;11.20;48.70
33943;DHT22;66763;47.856;17.462;2023-02-01T13:11:53;11.20;49.30
33943;DHT22;66763;47.856;17.462;2023-02-01T13:16:47;11.20;48.80
33943;DHT22;66763;47.856;17.462;2023-02-01T13:19:16;11.10;48.70
33943;DHT22;66763;47.856;17.462;2023-02-01T13:21:45;11.20;48.70
33943;DHT22;66763;47.856;17.462;2023-02-01T13:26:55;11.10;48.60
33943;DHT22;66763;47.856;17.462;2023-02-01T13:29:21;11.10;48.70
33943;DHT22;66763;47.856;17.462;2023-02-01T13:40:16;11.10;48.70
33943;DHT22;66763;47.856;17.462;2023-02-01T13:42:46;11.10;48.70
33943;DHT22;66763;47.856;17.462;2023-02-01T13:45:14;11.10;48.70
33943;DHT22;66763;47.856;17.462;2023-02-01T13:47:41;11.10;48.80
33943;DHT22;66763;47.856;17.462;2023-02-01T13:52:39;11.20;48.80
33943;DHT22;66763;47.856;17.462;2023-02-01T13:55:23;11.10;48.80
33943;DHT22;66763;47.856;17.462;2023-02-01T13:57:50;11.10;48.70
33943;DHT22;66763;47.856;17.462;2023-02-01T14:03:01;11.10;48.80
33943;DHT22;66763;47.856;17.462;2023-02-01T14:08:09;11.10;48.80
33943;DHT22;66763;47.856;17.462;2023-02-01T14:13:27;11.10;48.80
33943;DHT22;66763;47.856;17.462;2023-02-01T14:21:18;11.10;48.90
33943;DHT22;66763;47.856;17.462;2023-02-01T14:23:45;11.10;48.80
33943;DHT22;66763;47.856;17.462;2023-02-01T14:26:16;11.10;48.90
33943;DHT22;66763;47.856;17.462;2023-02-01T14:28:43;11.10;48.90
33943;DHT22;66763;47.856;17.462;2023-02-01T14:31:14;11.10;48.90
33943;DHT22;66763;47.856;17.462;2023-02-01T14:33:41;11.10;48.90
33943;DHT22;66763;47.856;17.462;2023-02-01T14:36:10;11.10;48.90
33943;DHT22;66763;47.856;17.462;2023-02-01T14:38:37;11.00;48.90
33943;DHT22;66763;47.856;17.462;2023-02-01T14:41:37;11.00;48.90
33943;DHT22;66763;47.856;17.462;2023-02-01T14:49:11;11.10;48.90
33943;DHT22;66763;47.856;17.462;2023-02-01T14:51:37;11.00;48.90
33943;DHT22;66763;47.856;17.462;2023-02-01T14:54:03;11.00;49.00
33943;DHT22;66763;47.856;17.462;2023-02-01T14:56:29;11.00;49.00
33943;DHT22;66763;47.856;17.462;2023-02-01T14:58:57;11.00;48.90
33943;DHT22;66763;47.856;17.462;2023-02-01T15:01:29;11.00;48.90
33943;DHT22;66763;47.856;17.462;2023-02-01T15:04:15;11.00;48.90
33943;DHT22;66763;47.856;17.462;2023-02-01T15:06:47;11.00;48.90
33943;DHT22;66763;47.856;17.462;2023-02-01T15:14:23;11.00;49.00
33943;DHT22;66763;47.856;17.462;2023-02-01T15:16:49;11.00;49.00
33943;DHT22;66763;47.856;17.462;2023-02-01T15:19:24;11.00;49.00
33943;DHT22;66763;47.856;17.462;2023-02-01T15:21:51;11.00;48.90
33943;DHT22;66763;47.856;17.462;2023-02-01T15:24:24;11.00;48.90
33943;DHT22;66763;47.856;17.462;2023-02-01T15:26:50;11.10;49.00
33943;DHT22;66763;47.856;17.462;2023-02-01T15:29:16;11.10;49.00
33943;DHT22;66763;47.856;17.462;2023-02-01T15:34:08;11.40;48.70
33943;DHT22;66763;47.856;17.462;2023-02-01T15:36:33;11.70;48.50
33943;DHT22;66763;47.856;17.462;2023-02-01T15:39:16;11.90;48.20
33943;DHT22;66763;47.856;17.462;2023-02-01T15:41:48;12.10;48.40
33943;DHT22;66763;47.856;17.462;2023-02-01T15:44:32;12.30;47.40
33943;DHT22;66763;47.856;17.462;2023-02-01T15:46:58;12.50;47.20
33943;DHT22;66763;47.856;17.462;2023-02-01T15:51:53;12.80;46.70
33943;DHT22;66763;47.856;17.462;2023-02-01T15:54:24;12.90;46.50
33943;DHT22;66763;47.856;17.462;2023-02-01T15:56:50;13.00;46.30
33943;DHT22;66763;47.856;17.462;2023-02-01T15:59:19;13.20;46.30
33943;DHT22;66763;47.856;17.462;2023-02-01T16:01:45;13.30;46.10
33943;DHT22;66763;47.856;17.462;2023-02-01T16:06:37;13.40;45.90
33943;DHT22;66763;47.856;17.462;2023-02-01T16:09:13;13.30;45.80
33943;DHT22;66763;47.856;17.462;2023-02-01T16:11:47;13.40;45.90
33943;DHT22;66763;47.856;17.462;2023-02-01T16:14:12;13.30;45.90
33943;DHT22;66763;47.856;17.462;2023-02-01T16:16:38;13.30;46.00
33943;DHT22;66763;47.856;17.462;2023-02-01T16:19:03;13.30;46.00
33943;DHT22;66763;47.856;17.462;2023-02-01T16:21:29;13.20;46.10
33943;DHT22;66763;47.856;17.462;2023-02-01T16:23:54;13.20;46.20
33943;DHT22;66763;47.856;17.462;2023-02-01T16:26:20;13.10;46.20
33943;DHT22;66763;47.856;17.462;2023-02-01T16:28:46;13.10;46.30
33943;DHT22;66763;47.856;17.462;2023-02-01T16:31:13;13.00;46.40
33943;DHT22;66763;47.856;17.462;2023-02-01T16:33:46;13.00;46.60
33943;DHT22;66763;47.856;17.462;2023-02-01T16:36:11;13.00;46.70
33943;DHT22;66763;47.856;17.462;2023-02-01T16:38:38;12.90;46.80
33943;DHT22;66763;47.856;17.462;2023-02-01T16:41:04;12.80;46.70
33943;DHT22;66763;47.856;17.462;2023-02-01T16:43:30;12.80;46.80
33943;DHT22;66763;47.856;17.462;2023-02-01T16:46:00;12.80;47.00
33943;DHT22;66763;47.856;17.462;2023-02-01T16:48:31;12.70;47.00
33943;DHT22;66763;47.856;17.462;2023-02-01T16:50:59;12.70;47.10
33943;DHT22;66763;47.856;17.462;2023-02-01T16:53:26;12.60;47.20
33943;DHT22;66763;47.856;17.462;2023-02-01T16:55:53;12.60;47.40
33943;DHT22;66763;47.856;17.462;2023-02-01T16:58:19;12.50;47.30
33943;DHT22;66763;47.856;17.462;2023-02-01T17:00:45;12.50;47.40
33943;DHT22;66763;47.856;17.462;2023-02-01T17:03:11;12.50;47.50
33943;DHT22;66763;47.856;17.462;2023-02-01T17:05:43;12.40;47.60
33943;DHT22;66763;47.856;17.462;2023-02-01T17:08:09;12.40;47.60
33943;DHT22;66763;47.856;17.462;2023-02-01T17:10:37;12.30;47.70
33943;DHT22;66763;47.856;17.462;2023-02-01T17:13:03;12.30;47.80
33943;DHT22;66763;47.856;17.462;2023-02-01T17:15:31;12.20;47.80
33943;DHT22;66763;47.856;17.462;2023-02-01T17:17:59;12.20;47.90
33943;DHT22;66763;47.856;17.462;2023-02-01T17:20:28;12.20;47.90
33943;DHT22;66763;47.856;17.462;2023-02-01T17:22:54;12.10;48.00
33943;DHT22;66763;47.856;17.462;2023-02-01T17:25:21;12.10;48.10
33943;DHT22;66763;47.856;17.462;2023-02-01T17:27:50;12.10;48.20
33943;DHT22;66763;47.856;17.462;2023-02-01T17:30:15;12.00;48.30
33943;DHT22;66763;47.856;17.462;2023-02-01T17:32:41;12.00;48.30
33943;DHT22;66763;47.856;17.462;2023-02-01T17:35:15;12.00;48.40
33943;DHT22;66763;47.856;17.462;2023-02-01T17:37:42;11.90;48.40
33943;DHT22;66763;47.856;17.462;2023-02-01T17:40:08;11.90;48.40
33943;DHT22;66763;47.856;17.462;2023-02-01T17:42:35;11.90;48.60
33943;DHT22;66763;47.856;17.462;2023-02-01T17:45:10;11.80;48.60
33943;DHT22;66763;47.856;17.462;2023-02-01T17:47:39;11.80;48.60
33943;DHT22;66763;47.856;17.462;2023-02-01T17:50:05;11.80;48.60
33943;DHT22;66763;47.856;17.462;2023-02-01T17:52:31;11.80;48.60